sensor_id;sensor_type;location;lat;lon;timestamp;pressure;altitude;pressure_sealevel;temperature;humidity
71907;BME280;59781;52.090;5.030;2023-01-16T00:01:25;99476.78;;;5.29;97.68
71907;BME280;59781;52.090;5.030;2023-01-16T00:03:52;99472.94;;;5.31;96.64
71907;BME280;59781;52.090;5.030;2023-01-16T00:06:18;99474.63;;;5.16;97.02
71907;BME280;59781;52.090;5.030;2023-01-16T00:08:44;99464.13;;;5.14;96.41
71907;BME280;59781;52.090;5.030;2023-01-16T00:11:11;99456.81;;;5.00;96.95
71907;BME280;59781;52.090;5.030;2023-01-16T00:13:38;99458.66;;;4.92;98.10
71907;BME280;59781;52.090;5.030;2023-01-16T00:16:05;99456.50;;;5.03;97.15
71907;BME280;59781;52.090;5.030;2023-01-16T00:18:32;99456.31;;;5.05;96.63
71907;BME280;59781;52.090;5.030;2023-01-16T00:20:58;99450.81;;;5.06;96.01
71907;BME280;59781;52.090;5.030;2023-01-16T00:23:24;99445.66;;;5.05;96.29
71907;BME280;59781;52.090;5.030;2023-01-16T00:25:50;99438.34;;;4.42;98.97
71907;BME280;59781;52.090;5.030;2023-01-16T00:28:16;99433.81;;;4.99;97.02
71907;BME280;59781;52.090;5.030;2023-01-16T00:30:41;99421.69;;;4.64;98.64
71907;BME280;59781;52.090;5.030;2023-01-16T00:33:08;99419.69;;;4.74;97.41
71907;BME280;59781;52.090;5.030;2023-01-16T00:35:34;99412.16;;;4.94;96.15
71907;BME280;59781;52.090;5.030;2023-01-16T00:38:01;99405.53;;;4.74;97.34
71907;BME280;59781;52.090;5.030;2023-01-16T00:40:27;99407.38;;;4.65;97.08
71907;BME280;59781;52.090;5.030;2023-01-16T00:42:53;99401.31;;;4.79;95.87
71907;BME280;59781;52.090;5.030;2023-01-16T00:45:19;99400.38;;;4.72;97.06
71907;BME280;59781;52.090;5.030;2023-01-16T00:47:45;99401.19;;;4.65;96.96
71907;BME280;59781;52.090;5.030;2023-01-16T00:50:11;99398.00;;;4.61;97.30
71907;BME280;59781;52.090;5.030;2023-01-16T00:52:37;99397.72;;;4.23;99.47
71907;BME280;59781;52.090;5.030;2023-01-16T00:55:03;99389.53;;;4.66;98.86
71907;BME280;59781;52.090;5.030;2023-01-16T00:57:29;99382.38;;;4.58;98.65
71907;BME280;59781;52.090;5.030;2023-01-16T00:59:55;99382.19;;;4.68;98.05
71907;BME280;59781;52.090;5.030;2023-01-16T01:02:21;99375.38;;;4.49;98.30
71907;BME280;59781;52.090;5.030;2023-01-16T01:04:46;99368.91;;;4.43;99.15
71907;BME280;59781;52.090;5.030;2023-01-16T01:07:12;99361.56;;;4.53;98.98
71907;BME280;59781;52.090;5.030;2023-01-16T01:09:38;99353.41;;;4.39;98.44
71907;BME280;59781;52.090;5.030;2023-01-16T01:12:03;99342.06;;;4.12;100.00
71907;BME280;59781;52.090;5.030;2023-01-16T01:14:29;99335.38;;;4.49;98.98
71907;BME280;59781;52.090;5.030;2023-01-16T01:16:55;99335.56;;;4.31;98.80
71907;BME280;59781;52.090;5.030;2023-01-16T01:19:21;99333.56;;;4.41;99.22
71907;BME280;59781;52.090;5.030;2023-01-16T01:21:46;99325.56;;;4.41;99.21
71907;BME280;59781;52.090;5.030;2023-01-16T01:24:12;99316.25;;;4.53;98.74
71907;BME280;59781;52.090;5.030;2023-01-16T01:26:38;99310.28;;;3.94;99.51
71907;BME280;59781;52.090;5.030;2023-01-16T01:29:04;99309.44;;;4.10;100.00
71907;BME280;59781;52.090;5.030;2023-01-16T01:31:29;99299.28;;;3.89;100.00
71907;BME280;59781;52.090;5.030;2023-01-16T01:33:55;99295.78;;;3.89;100.00
71907;BME280;59781;52.090;5.030;2023-01-16T01:36:21;99290.63;;;3.87;100.00
71907;BME280;59781;52.090;5.030;2023-01-16T01:38:47;99295.13;;;3.87;100.00
71907;BME280;59781;52.090;5.030;2023-01-16T01:41:15;99289.47;;;3.90;100.00
71907;BME280;59781;52.090;5.030;2023-01-16T01:43:46;99286.13;;;3.63;100.00
71907;BME280;59781;52.090;5.030;2023-01-16T01:49:23;99280.97;;;4.27;100.00
71907;BME280;59781;52.090;5.030;2023-01-16T01:51:59;99272.78;;;4.20;99.94
71907;BME280;59781;52.090;5.030;2023-01-16T01:54:38;99264.13;;;4.35;99.03
71907;BME280;59781;52.090;5.030;2023-01-16T01:57:25;99262.00;;;3.89;100.00
71907;BME280;59781;52.090;5.030;2023-01-16T02:00:01;99253.50;;;4.10;100.00
71907;BME280;59781;52.090;5.030;2023-01-16T02:02:56;99247.16;;;4.11;100.00
71907;BME280;59781;52.090;5.030;2023-01-16T02:05:37;99252.69;;;3.69;100.00
71907;BME280;59781;52.090;5.030;2023-01-16T02:08:14;99245.66;;;3.43;100.00
71907;BME280;59781;52.090;5.030;2023-01-16T02:10:47;99243.38;;;3.65;100.00
71907;BME280;59781;52.090;5.030;2023-01-16T02:13:17;99231.25;;;3.54;100.00
71907;BME280;59781;52.090;5.030;2023-01-16T02:15:43;99229.91;;;3.74;100.00
71907;BME280;59781;52.090;5.030;2023-01-16T02:18:28;99238.88;;;3.57;100.00
71907;BME280;59781;52.090;5.030;2023-01-16T02:30:14;99207.09;;;3.80;100.00
71907;BME280;59781;52.090;5.030;2023-01-16T02:32:58;99209.09;;;3.62;100.00
71907;BME280;59781;52.090;5.030;2023-01-16T02:38:54;99200.75;;;3.73;100.00
71907;BME280;59781;52.090;5.030;2023-01-16T02:47:27;99181.50;;;3.55;100.00
71907;BME280;59781;52.090;5.030;2023-01-16T02:50:26;99188.47;;;3.39;100.00
71907;BME280;59781;52.090;5.030;2023-01-16T02:55:58;99166.53;;;3.45;100.00
71907;BME280;59781;52.090;5.030;2023-01-16T02:58:41;99150.91;;;3.26;100.00
71907;BME280;59781;52.090;5.030;2023-01-16T03:01:09;99141.88;;;3.52;100.00
71907;BME280;59781;52.090;5.030;2023-01-16T03:03:50;99132.59;;;3.56;100.00
71907;BME280;59781;52.090;5.030;2023-01-16T03:06:44;99113.44;;;3.52;100.00
71907;BME280;59781;52.090;5.030;2023-01-16T03:12:28;99105.78;;;3.65;100.00
71907;BME280;59781;52.090;5.030;2023-01-16T03:20:50;99088.00;;;3.66;100.00
71907;BME280;59781;52.090;5.030;2023-01-16T03:26:30;99082.31;;;3.61;100.00
71907;BME280;59781;52.090;5.030;2023-01-16T03:32:34;99080.69;;;3.52;100.00
71907;BME280;59781;52.090;5.030;2023-01-16T03:37:47;99051.88;;;3.63;100.00
71907;BME280;59781;52.090;5.030;2023-01-16T03:40:22;99052.59;;;3.49;100.00
71907;BME280;59781;52.090;5.030;2023-01-16T03:43:06;99046.22;;;3.66;100.00
71907;BME280;59781;52.090;5.030;2023-01-16T03:46:14;99035.81;;;3.32;100.00
71907;BME280;59781;52.090;5.030;2023-01-16T03:48:57;99032.19;;;3.25;100.00
71907;BME280;59781;52.090;5.030;2023-01-16T03:52:09;99009.16;;;3.57;100.00
71907;BME280;59781;52.090;5.030;2023-01-16T03:57:13;99001.47;;;3.62;100.00
71907;BME280;59781;52.090;5.030;2023-01-16T03:59:45;98992.69;;;3.92;100.00
71907;BME280;59781;52.090;5.030;2023-01-16T04:02:53;98983.47;;;3.72;100.00
71907;BME280;59781;52.090;5.030;2023-01-16T04:05:39;98975.88;;;3.92;100.00
71907;BME280;59781;52.090;5.030;2023-01-16T04:08:35;98967.03;;;3.99;100.00
71907;BME280;59781;52.090;5.030;2023-01-16T04:11:05;98958.56;;;3.96;100.00
71907;BME280;59781;52.090;5.030;2023-01-16T04:13:36;98955.91;;;3.96;99.80
71907;BME280;59781;52.090;5.030;2023-01-16T04:16:08;98943.63;;;3.87;100.00
71907;BME280;59781;52.090;5.030;2023-01-16T04:18:40;98932.66;;;3.82;100.00
71907;BME280;59781;52.090;5.030;2023-01-16T04:21:07;98926.00;;;3.86;100.00
71907;BME280;59781;52.090;5.030;2023-01-16T04:23:35;98923.34;;;3.86;99.90
71907;BME280;59781;52.090;5.030;2023-01-16T04:26:01;98914.41;;;3.70;100.00
71907;BME280;59781;52.090;5.030;2023-01-16T04:28:26;98904.09;;;3.76;100.00
71907;BME280;59781;52.090;5.030;2023-01-16T04:30:52;98902.09;;;3.78;100.00
71907;BME280;59781;52.090;5.030;2023-01-16T04:33:18;98889.16;;;3.66;100.00
71907;BME280;59781;52.090;5.030;2023-01-16T04:35:43;98876.88;;;3.65;100.00
71907;BME280;59781;52.090;5.030;2023-01-16T04:38:09;98865.91;;;3.83;100.00
71907;BME280;59781;52.090;5.030;2023-01-16T04:40:35;98862.78;;;3.80;100.00
71907;BME280;59781;52.090;5.030;2023-01-16T04:43:00;98853.56;;;3.90;100.00
71907;BME280;59781;52.090;5.030;2023-01-16T04:45:26;98843.91;;;3.66;100.00
71907;BME280;59781;52.090;5.030;2023-01-16T04:47:52;98838.81;;;3.57;100.00
71907;BME280;59781;52.090;5.030;2023-01-16T04:50:19;98829.72;;;3.74;100.00
71907;BME280;59781;52.090;5.030;2023-01-16T04:52:45;98822.66;;;3.58;100.00
71907;BME280;59781;52.090;5.030;2023-01-16T04:55:12;98807.66;;;3.65;100.00
71907;BME280;59781;52.090;5.030;2023-01-16T04:57:38;98810.91;;;3.76;100.00
71907;BME280;59781;52.090;5.030;2023-01-16T05:00:06;98801.59;;;3.71;100.00
71907;BME280;59781;52.090;5.030;2023-01-16T05:02:33;98791.59;;;3.73;100.00
71907;BME280;59781;52.090;5.030;2023-01-16T05:04:59;98781.22;;;3.33;100.00
71907;BME280;59781;52.090;5.030;2023-01-16T05:07:25;98781.19;;;3.41;100.00
71907;BME280;59781;52.090;5.030;2023-01-16T05:09:53;98773.53;;;3.69;100.00
71907;BME280;59781;52.090;5.030;2023-01-16T05:12:19;98761.00;;;3.24;100.00
71907;BME280;59781;52.090;5.030;2023-01-16T05:14:45;98758.84;;;3.27;100.00
71907;BME280;59781;52.090;5.030;2023-01-16T05:17:11;98741.81;;;3.59;100.00
71907;BME280;59781;52.090;5.030;2023-01-16T05:19:37;98745.75;;;3.63;100.00
71907;BME280;59781;52.090;5.030;2023-01-16T05:22:02;98736.78;;;3.41;100.00
71907;BME280;59781;52.090;5.030;2023-01-16T05:24:28;98722.97;;;3.46;100.00
71907;BME280;59781;52.090;5.030;2023-01-16T05:26:54;98711.72;;;3.36;100.00
71907;BME280;59781;52.090;5.030;2023-01-16T05:29:19;98707.75;;;3.32;100.00
71907;BME280;59781;52.090;5.030;2023-01-16T05:31:45;98693.38;;;3.41;100.00
71907;BME280;59781;52.090;5.030;2023-01-16T05:34:11;98685.13;;;3.36;100.00
71907;BME280;59781;52.090;5.030;2023-01-16T05:36:36;98673.50;;;3.52;100.00
71907;BME280;59781;52.090;5.030;2023-01-16T05:39:02;98666.94;;;3.62;100.00
71907;BME280;59781;52.090;5.030;2023-01-16T05:41:28;98650.63;;;3.65;100.00
71907;BME280;59781;52.090;5.030;2023-01-16T05:43:54;98643.66;;;3.79;100.00
71907;BME280;59781;52.090;5.030;2023-01-16T05:46:19;98637.50;;;3.41;100.00
71907;BME280;59781;52.090;5.030;2023-01-16T05:48:45;98632.19;;;3.64;100.00
71907;BME280;59781;52.090;5.030;2023-01-16T05:51:11;98617.03;;;3.64;100.00
71907;BME280;59781;52.090;5.030;2023-01-16T05:53:37;98611.88;;;3.78;100.00
71907;BME280;59781;52.090;5.030;2023-01-16T05:56:08;98594.81;;;3.72;100.00
71907;BME280;59781;52.090;5.030;2023-01-16T05:58:36;98590.03;;;3.67;100.00
71907;BME280;59781;52.090;5.030;2023-01-16T06:01:03;98588.38;;;3.66;100.00
71907;BME280;59781;52.090;5.030;2023-01-16T06:03:29;98592.50;;;3.69;100.00
71907;BME280;59781;52.090;5.030;2023-01-16T06:05:55;98571.59;;;3.81;100.00
71907;BME280;59781;52.090;5.030;2023-01-16T06:08:21;98570.94;;;3.79;100.00
71907;BME280;59781;52.090;5.030;2023-01-16T06:10:46;98560.03;;;3.88;100.00
71907;BME280;59781;52.090;5.030;2023-01-16T06:13:13;98558.81;;;3.91;100.00
71907;BME280;59781;52.090;5.030;2023-01-16T06:15:39;98545.22;;;4.00;100.00
71907;BME280;59781;52.090;5.030;2023-01-16T06:18:05;98540.75;;;3.86;100.00
71907;BME280;59781;52.090;5.030;2023-01-16T06:20:30;98545.50;;;3.61;100.00
71907;BME280;59781;52.090;5.030;2023-01-16T06:22:56;98544.03;;;3.88;100.00
71907;BME280;59781;52.090;5.030;2023-01-16T06:25:22;98532.03;;;3.78;100.00
71907;BME280;59781;52.090;5.030;2023-01-16T06:27:49;98534.22;;;4.03;100.00
71907;BME280;59781;52.090;5.030;2023-01-16T06:30:15;98537.22;;;4.15;100.00
71907;BME280;59781;52.090;5.030;2023-01-16T06:32:42;98529.91;;;3.88;100.00
71907;BME280;59781;52.090;5.030;2023-01-16T06:35:08;98523.31;;;3.84;100.00
71907;BME280;59781;52.090;5.030;2023-01-16T06:37:34;98509.91;;;3.77;100.00
71907;BME280;59781;52.090;5.030;2023-01-16T06:39:59;98511.81;;;3.83;100.00
71907;BME280;59781;52.090;5.030;2023-01-16T06:42:27;98498.06;;;3.94;100.00
71907;BME280;59781;52.090;5.030;2023-01-16T06:44:53;98491.59;;;4.03;100.00
71907;BME280;59781;52.090;5.030;2023-01-16T06:47:19;98491.31;;;3.98;100.00
71907;BME280;59781;52.090;5.030;2023-01-16T06:49:46;98492.63;;;3.88;100.00
71907;BME280;59781;52.090;5.030;2023-01-16T06:52:12;98475.56;;;3.82;100.00
71907;BME280;59781;52.090;5.030;2023-01-16T06:54:37;98472.34;;;3.87;100.00
71907;BME280;59781;52.090;5.030;2023-01-16T06:57:03;98464.91;;;3.82;100.00
71907;BME280;59781;52.090;5.030;2023-01-16T06:59:29;98468.19;;;3.99;100.00
71907;BME280;59781;52.090;5.030;2023-01-16T07:01:54;98459.66;;;3.89;100.00
71907;BME280;59781;52.090;5.030;2023-01-16T07:04:20;98458.63;;;4.05;100.00
71907;BME280;59781;52.090;5.030;2023-01-16T07:06:46;98446.69;;;4.00;100.00
71907;BME280;59781;52.090;5.030;2023-01-16T07:09:14;98439.91;;;3.98;100.00
71907;BME280;59781;52.090;5.030;2023-01-16T07:11:39;98429.97;;;4.07;100.00
71907;BME280;59781;52.090;5.030;2023-01-16T07:14:05;98416.25;;;3.88;100.00
71907;BME280;59781;52.090;5.030;2023-01-16T07:16:49;98410.47;;;3.85;100.00
71907;BME280;59781;52.090;5.030;2023-01-16T07:19:34;98404.66;;;3.96;100.00
71907;BME280;59781;52.090;5.030;2023-01-16T07:22:19;98390.25;;;3.90;100.00
71907;BME280;59781;52.090;5.030;2023-01-16T07:25:02;98369.56;;;3.92;100.00
71907;BME280;59781;52.090;5.030;2023-01-16T07:27:35;98370.16;;;3.88;100.00
71907;BME280;59781;52.090;5.030;2023-01-16T07:30:01;98366.88;;;3.86;100.00
71907;BME280;59781;52.090;5.030;2023-01-16T07:32:27;98364.84;;;3.88;100.00
71907;BME280;59781;52.090;5.030;2023-01-16T07:34:52;98354.72;;;3.83;100.00
71907;BME280;59781;52.090;5.030;2023-01-16T07:37:18;98339.16;;;3.80;100.00
71907;BME280;59781;52.090;5.030;2023-01-16T07:39:43;98338.44;;;3.71;100.00
71907;BME280;59781;52.090;5.030;2023-01-16T07:42:09;98315.63;;;3.62;100.00
71907;BME280;59781;52.090;5.030;2023-01-16T07:44:35;98303.09;;;3.78;100.00
71907;BME280;59781;52.090;5.030;2023-01-16T07:47:00;98292.84;;;3.74;100.00
71907;BME280;59781;52.090;5.030;2023-01-16T07:49:26;98280.97;;;3.77;100.00
71907;BME280;59781;52.090;5.030;2023-01-16T07:51:52;98277.03;;;3.73;100.00
71907;BME280;59781;52.090;5.030;2023-01-16T07:54:18;98268.41;;;3.71;100.00
71907;BME280;59781;52.090;5.030;2023-01-16T07:56:43;98272.59;;;3.80;100.00
71907;BME280;59781;52.090;5.030;2023-01-16T07:59:09;98271.06;;;3.71;100.00
71907;BME280;59781;52.090;5.030;2023-01-16T08:01:35;98249.09;;;3.62;100.00
71907;BME280;59781;52.090;5.030;2023-01-16T08:04:01;98250.19;;;3.68;100.00
71907;BME280;59781;52.090;5.030;2023-01-16T08:06:26;98236.78;;;3.61;100.00
71907;BME280;59781;52.090;5.030;2023-01-16T08:08:52;98238.50;;;3.69;100.00
71907;BME280;59781;52.090;5.030;2023-01-16T08:11:18;98228.69;;;3.69;100.00
71907;BME280;59781;52.090;5.030;2023-01-16T08:14:03;98238.94;;;3.72;100.00
71907;BME280;59781;52.090;5.030;2023-01-16T08:16:30;98214.66;;;3.82;100.00
71907;BME280;59781;52.090;5.030;2023-01-16T08:18:55;98211.97;;;3.76;100.00
71907;BME280;59781;52.090;5.030;2023-01-16T08:21:21;98196.22;;;3.81;100.00
71907;BME280;59781;52.090;5.030;2023-01-16T08:23:47;98194.91;;;3.70;100.00
71907;BME280;59781;52.090;5.030;2023-01-16T08:26:13;98183.25;;;3.71;100.00
71907;BME280;59781;52.090;5.030;2023-01-16T08:28:40;98184.94;;;3.79;100.00
71907;BME280;59781;52.090;5.030;2023-01-16T08:31:08;98188.72;;;3.91;100.00
71907;BME280;59781;52.090;5.030;2023-01-16T08:33:38;98176.72;;;4.01;100.00
71907;BME280;59781;52.090;5.030;2023-01-16T08:36:07;98171.78;;;3.98;100.00
71907;BME280;59781;52.090;5.030;2023-01-16T08:38:35;98164.41;;;4.00;100.00
71907;BME280;59781;52.090;5.030;2023-01-16T08:41:01;98154.84;;;4.06;100.00
71907;BME280;59781;52.090;5.030;2023-01-16T08:43:27;98143.31;;;3.99;100.00
71907;BME280;59781;52.090;5.030;2023-01-16T08:46:18;98148.38;;;3.87;100.00
71907;BME280;59781;52.090;5.030;2023-01-16T08:49:12;98138.75;;;3.93;100.00
71907;BME280;59781;52.090;5.030;2023-01-16T08:51:59;98130.53;;;3.88;100.00
71907;BME280;59781;52.090;5.030;2023-01-16T08:54:25;98124.34;;;3.81;100.00
71907;BME280;59781;52.090;5.030;2023-01-16T08:56:51;98133.63;;;3.91;100.00
71907;BME280;59781;52.090;5.030;2023-01-16T08:59:17;98124.19;;;3.89;100.00
71907;BME280;59781;52.090;5.030;2023-01-16T09:01:43;98112.59;;;3.96;100.00
71907;BME280;59781;52.090;5.030;2023-01-16T09:04:09;98104.81;;;4.01;100.00
71907;BME280;59781;52.090;5.030;2023-01-16T09:06:35;98090.31;;;4.04;100.00
71907;BME280;59781;52.090;5.030;2023-01-16T09:09:05;98075.09;;;3.98;100.00
71907;BME280;59781;52.090;5.030;2023-01-16T09:11:33;98078.63;;;4.05;100.00
71907;BME280;59781;52.090;5.030;2023-01-16T09:14:18;98072.53;;;4.18;100.00
71907;BME280;59781;52.090;5.030;2023-01-16T09:16:45;98068.63;;;4.14;100.00
71907;BME280;59781;52.090;5.030;2023-01-16T09:19:11;98075.97;;;4.12;100.00
71907;BME280;59781;52.090;5.030;2023-01-16T09:21:37;98062.28;;;4.21;100.00
71907;BME280;59781;52.090;5.030;2023-01-16T09:24:03;98070.53;;;4.26;100.00
71907;BME280;59781;52.090;5.030;2023-01-16T09:26:29;98051.50;;;4.36;100.00
71907;BME280;59781;52.090;5.030;2023-01-16T09:28:56;98048.84;;;4.36;100.00
71907;BME280;59781;52.090;5.030;2023-01-16T09:31:22;98055.38;;;4.27;100.00
71907;BME280;59781;52.090;5.030;2023-01-16T09:33:48;98044.34;;;4.37;100.00
71907;BME280;59781;52.090;5.030;2023-01-16T09:36:14;98044.31;;;4.30;100.00
71907;BME280;59781;52.090;5.030;2023-01-16T09:38:41;98036.75;;;4.40;100.00
71907;BME280;59781;52.090;5.030;2023-01-16T09:41:14;98041.06;;;4.35;100.00
71907;BME280;59781;52.090;5.030;2023-01-16T09:44:03;98033.69;;;4.37;100.00
71907;BME280;59781;52.090;5.030;2023-01-16T09:46:42;98030.41;;;4.35;100.00
71907;BME280;59781;52.090;5.030;2023-01-16T09:49:23;98021.59;;;4.41;100.00
71907;BME280;59781;52.090;5.030;2023-01-16T09:52:09;98015.88;;;4.57;100.00
71907;BME280;59781;52.090;5.030;2023-01-16T09:58:24;98013.63;;;4.47;100.00
71907;BME280;59781;52.090;5.030;2023-01-16T10:01:30;98000.09;;;4.49;100.00
71907;BME280;59781;52.090;5.030;2023-01-16T10:16:25;97983.69;;;4.58;100.00
71907;BME280;59781;52.090;5.030;2023-01-16T10:19:29;97985.53;;;4.45;100.00
71907;BME280;59781;52.090;5.030;2023-01-16T10:25:21;97978.56;;;4.50;100.00
71907;BME280;59781;52.090;5.030;2023-01-16T10:31:04;97972.41;;;4.43;100.00
71907;BME280;59781;52.090;5.030;2023-01-16T10:33:47;97960.13;;;4.55;100.00
71907;BME280;59781;52.090;5.030;2023-01-16T10:36:30;97950.69;;;4.59;100.00
71907;BME280;59781;52.090;5.030;2023-01-16T10:39:02;97946.38;;;4.52;100.00
71907;BME280;59781;52.090;5.030;2023-01-16T10:41:35;97944.53;;;4.59;100.00
71907;BME280;59781;52.090;5.030;2023-01-16T10:47:34;97930.19;;;4.60;100.00
71907;BME280;59781;52.090;5.030;2023-01-16T10:50:21;97927.13;;;4.76;100.00
71907;BME280;59781;52.090;5.030;2023-01-16T10:52:50;97922.59;;;5.03;100.00
71907;BME280;59781;52.090;5.030;2023-01-16T10:55:17;97929.81;;;4.83;100.00
71907;BME280;59781;52.090;5.030;2023-01-16T10:57:55;97917.50;;;4.75;100.00
71907;BME280;59781;52.090;5.030;2023-01-16T11:00:27;97919.94;;;4.90;100.00
71907;BME280;59781;52.090;5.030;2023-01-16T11:03:00;97907.84;;;4.74;100.00
71907;BME280;59781;52.090;5.030;2023-01-16T11:05:36;97910.72;;;4.73;100.00
71907;BME280;59781;52.090;5.030;2023-01-16T11:10:38;97895.97;;;4.57;100.00
71907;BME280;59781;52.090;5.030;2023-01-16T11:13:14;97890.00;;;4.75;100.00
71907;BME280;59781;52.090;5.030;2023-01-16T11:16:08;97883.84;;;4.81;100.00
71907;BME280;59781;52.090;5.030;2023-01-16T11:19:22;97871.97;;;4.57;100.00
71907;BME280;59781;52.090;5.030;2023-01-16T11:22:00;97870.53;;;4.68;100.00
71907;BME280;59781;52.090;5.030;2023-01-16T11:24:34;97864.69;;;5.17;100.00
71907;BME280;59781;52.090;5.030;2023-01-16T11:27:13;97859.97;;;5.26;100.00
71907;BME280;59781;52.090;5.030;2023-01-16T11:29:46;97854.69;;;5.06;100.00
71907;BME280;59781;52.090;5.030;2023-01-16T11:32:13;97852.00;;;5.12;100.00
71907;BME280;59781;52.090;5.030;2023-01-16T11:34:46;97849.00;;;5.40;100.00
71907;BME280;59781;52.090;5.030;2023-01-16T11:37:15;97845.72;;;5.45;100.00
71907;BME280;59781;52.090;5.030;2023-01-16T11:39:49;97845.97;;;5.37;100.00
71907;BME280;59781;52.090;5.030;2023-01-16T11:42:18;97835.63;;;5.54;100.00
71907;BME280;59781;52.090;5.030;2023-01-16T11:45:24;97832.13;;;5.53;100.00
71907;BME280;59781;52.090;5.030;2023-01-16T11:48:10;97829.84;;;5.63;100.00
71907;BME280;59781;52.090;5.030;2023-01-16T11:50:55;97821.88;;;5.88;100.00
71907;BME280;59781;52.090;5.030;2023-01-16T11:53:29;97814.19;;;6.05;100.00
71907;BME280;59781;52.090;5.030;2023-01-16T12:02:41;97800.50;;;5.88;100.00
71907;BME280;59781;52.090;5.030;2023-01-16T12:05:49;97800.34;;;6.15;100.00
71907;BME280;59781;52.090;5.030;2023-01-16T12:14:59;97778.22;;;5.69;100.00
71907;BME280;59781;52.090;5.030;2023-01-16T12:23:22;97766.09;;;5.42;100.00
71907;BME280;59781;52.090;5.030;2023-01-16T12:26:25;97760.34;;;5.38;100.00
71907;BME280;59781;52.090;5.030;2023-01-16T12:38:18;97741.13;;;5.61;100.00
71907;BME280;59781;52.090;5.030;2023-01-16T12:58:42;97706.44;;;5.93;100.00
71907;BME280;59781;52.090;5.030;2023-01-16T13:01:19;97705.72;;;6.04;100.00
71907;BME280;59781;52.090;5.030;2023-01-16T13:06:42;97695.78;;;5.55;100.00
71907;BME280;59781;52.090;5.030;2023-01-16T13:12:18;97689.22;;;6.07;100.00
71907;BME280;59781;52.090;5.030;2023-01-16T13:15:25;97692.03;;;5.87;100.00
71907;BME280;59781;52.090;5.030;2023-01-16T13:20:25;97684.88;;;6.13;100.00
71907;BME280;59781;52.090;5.030;2023-01-16T13:22:58;97682.19;;;5.63;100.00
71907;BME280;59781;52.090;5.030;2023-01-16T13:25:36;97672.38;;;5.82;100.00
71907;BME280;59781;52.090;5.030;2023-01-16T13:34:14;97660.81;;;5.88;100.00
71907;BME280;59781;52.090;5.030;2023-01-16T13:40:02;97658.59;;;6.28;100.00
71907;BME280;59781;52.090;5.030;2023-01-16T13:42:58;97654.38;;;6.20;100.00
71907;BME280;59781;52.090;5.030;2023-01-16T13:45:52;97663.50;;;6.13;100.00
71907;BME280;59781;52.090;5.030;2023-01-16T13:48:29;97665.69;;;5.97;100.00
71907;BME280;59781;52.090;5.030;2023-01-16T13:51:03;97665.22;;;6.25;100.00
71907;BME280;59781;52.090;5.030;2023-01-16T13:53:41;97659.97;;;6.55;100.00
71907;BME280;59781;52.090;5.030;2023-01-16T13:56:19;97653.66;;;6.50;99.26
71907;BME280;59781;52.090;5.030;2023-01-16T13:59:02;97654.19;;;5.72;100.00
71907;BME280;59781;52.090;5.030;2023-01-16T14:01:54;97649.44;;;5.99;100.00
71907;BME280;59781;52.090;5.030;2023-01-16T14:06:51;97639.25;;;6.51;100.00
71907;BME280;59781;52.090;5.030;2023-01-16T14:09:58;97650.47;;;5.98;100.00
71907;BME280;59781;52.090;5.030;2023-01-16T14:15:51;97633.91;;;7.41;97.74
71907;BME280;59781;52.090;5.030;2023-01-16T14:18:58;97644.47;;;6.76;99.19
71907;BME280;59781;52.090;5.030;2023-01-16T14:21:46;97639.81;;;6.89;98.39
71907;BME280;59781;52.090;5.030;2023-01-16T14:24:40;97635.59;;;6.64;98.92
71907;BME280;59781;52.090;5.030;2023-01-16T14:27:15;97641.34;;;6.30;100.00
71907;BME280;59781;52.090;5.030;2023-01-16T14:32:20;97636.00;;;6.30;100.00
71907;BME280;59781;52.090;5.030;2023-01-16T14:34:54;97629.59;;;6.50;100.00
71907;BME280;59781;52.090;5.030;2023-01-16T14:37:30;97630.66;;;6.30;100.00
71907;BME280;59781;52.090;5.030;2023-01-16T14:40:02;97630.25;;;6.45;100.00
71907;BME280;59781;52.090;5.030;2023-01-16T14:42:50;97639.81;;;6.16;100.00
71907;BME280;59781;52.090;5.030;2023-01-16T14:45:40;97635.88;;;5.75;100.00
71907;BME280;59781;52.090;5.030;2023-01-16T14:54:07;97631.47;;;6.49;100.00
71907;BME280;59781;52.090;5.030;2023-01-16T14:57:10;97627.22;;;6.60;100.00
71907;BME280;59781;52.090;5.030;2023-01-16T15:02:30;97621.94;;;6.53;99.59
71907;BME280;59781;52.090;5.030;2023-01-16T15:05:20;97627.94;;;6.49;100.00
71907;BME280;59781;52.090;5.030;2023-01-16T15:08:18;97630.94;;;6.41;100.00
71907;BME280;59781;52.090;5.030;2023-01-16T15:10:51;97624.03;;;6.33;100.00
71907;BME280;59781;52.090;5.030;2023-01-16T15:13:29;97627.34;;;6.28;100.00
71907;BME280;59781;52.090;5.030;2023-01-16T15:16:21;97619.41;;;6.58;100.00
71907;BME280;59781;52.090;5.030;2023-01-16T15:19:19;97629.38;;;6.51;100.00
71907;BME280;59781;52.090;5.030;2023-01-16T15:22:17;97628.09;;;6.54;100.00
71907;BME280;59781;52.090;5.030;2023-01-16T15:25:16;97631.22;;;6.51;100.00
71907;BME280;59781;52.090;5.030;2023-01-16T15:28:04;97633.16;;;6.62;100.00
71907;BME280;59781;52.090;5.030;2023-01-16T15:30:36;97632.38;;;6.92;99.13
71907;BME280;59781;52.090;5.030;2023-01-16T15:33:03;97636.28;;;6.22;100.00
71907;BME280;59781;52.090;5.030;2023-01-16T15:35:55;97630.94;;;6.41;100.00
71907;BME280;59781;52.090;5.030;2023-01-16T15:38:24;97631.13;;;6.57;100.00
71907;BME280;59781;52.090;5.030;2023-01-16T15:40:52;97623.34;;;6.38;100.00
71907;BME280;59781;52.090;5.030;2023-01-16T15:43:21;97623.28;;;6.93;98.23
71907;BME280;59781;52.090;5.030;2023-01-16T15:46:21;97632.41;;;6.37;99.57
71907;BME280;59781;52.090;5.030;2023-01-16T15:49:30;97624.81;;;6.70;99.18
71907;BME280;59781;52.090;5.030;2023-01-16T15:52:09;97619.53;;;6.82;97.67
71907;BME280;59781;52.090;5.030;2023-01-16T15:54:37;97630.88;;;6.77;98.00
71907;BME280;59781;52.090;5.030;2023-01-16T15:57:04;97633.28;;;6.49;100.00
71907;BME280;59781;52.090;5.030;2023-01-16T15:59:38;97645.13;;;6.59;100.00
71907;BME280;59781;52.090;5.030;2023-01-16T16:02:18;97638.78;;;6.36;100.00
71907;BME280;59781;52.090;5.030;2023-01-16T16:04:49;97645.25;;;6.46;100.00
71907;BME280;59781;52.090;5.030;2023-01-16T16:07:18;97634.94;;;6.31;100.00
71907;BME280;59781;52.090;5.030;2023-01-16T16:09:48;97648.31;;;6.50;100.00